createdAt,value
2023-03-08T00:01:34.970Z,2.27
2023-03-08T00:04:04.720Z,2.34
2023-03-08T00:06:33.269Z,2.37
2023-03-08T00:09:06.351Z,2.37
2023-03-08T00:11:34.739Z,2.38
2023-03-08T00:14:03.828Z,2.35
2023-03-08T00:16:32.211Z,2.32
2023-03-08T00:19:00.593Z,2.29
2023-03-08T00:21:30.009Z,2.27
2023-03-08T00:24:00.113Z,2.27
2023-03-08T00:26:28.494Z,2.32
2023-03-08T00:28:57.123Z,2.36
2023-03-08T00:31:26.769Z,2.39
2023-03-08T00:33:55.602Z,2.39
2023-03-08T00:36:26.135Z,2.38
2023-03-08T00:38:56.541Z,2.36
2023-03-08T00:41:24.815Z,2.32
2023-03-08T00:43:54.219Z,2.31
2023-03-08T00:46:22.727Z,2.31
2023-03-08T00:48:55.077Z,2.35
2023-03-08T00:51:23.764Z,2.43
2023-03-08T00:53:54.296Z,2.49
2023-03-08T00:56:22.873Z,2.52
2023-03-08T00:58:52.152Z,2.54
2023-03-08T01:01:20.891Z,2.55
2023-03-08T01:03:51.442Z,2.55
2023-03-08T01:06:20.533Z,2.54
2023-03-08T01:08:50.403Z,2.53
2023-03-08T01:11:26.224Z,2.45
2023-03-08T01:13:54.738Z,2.41
2023-03-08T01:16:28.125Z,2.46
2023-03-08T01:18:58.670Z,2.52
2023-03-08T01:21:28.325Z,2.54
2023-03-08T01:23:57.066Z,2.56
2023-03-08T01:26:26.490Z,2.58
2023-03-08T01:28:58.332Z,2.58
2023-03-08T01:31:28.718Z,2.57
2023-03-08T01:33:58.161Z,2.56
2023-03-08T01:36:27.886Z,2.62
2023-03-08T01:38:56.670Z,2.72
2023-03-08T01:41:27.223Z,2.75
2023-03-08T01:43:58.336Z,2.75
2023-03-08T01:46:36.758Z,2.75
2023-03-08T01:49:28.276Z,2.75
2023-03-08T01:52:12.024Z,2.71
2023-03-08T01:54:43.888Z,2.70
2023-03-08T01:57:26.081Z,2.68
2023-03-08T02:00:04.600Z,2.73
2023-03-08T02:02:58.680Z,2.78
2023-03-08T02:05:27.572Z,2.78
2023-03-08T02:08:00.163Z,2.79
2023-03-08T02:10:32.526Z,2.81
2023-03-08T02:13:07.875Z,2.83
2023-03-08T02:15:39.219Z,2.81
2023-03-08T02:18:08.011Z,2.80
2023-03-08T02:20:40.901Z,2.83
2023-03-08T02:23:09.793Z,2.88
2023-03-08T02:25:38.382Z,2.84
2023-03-08T02:28:10.139Z,2.83
2023-03-08T02:30:38.827Z,2.85
2023-03-08T02:33:07.930Z,2.85
2023-03-08T02:35:39.006Z,2.83
2023-03-08T02:38:07.440Z,2.81
2023-03-08T02:40:38.631Z,2.81
2023-03-08T02:43:07.178Z,2.86
2023-03-08T02:45:36.992Z,2.93
2023-03-08T02:48:06.419Z,2.94
2023-03-08T02:50:36.829Z,2.92
2023-03-08T02:53:05.410Z,2.90
2023-03-08T02:55:37.483Z,2.86
2023-03-08T02:58:10.486Z,2.85
2023-03-08T03:00:39.162Z,2.84
2023-03-08T03:03:08.965Z,2.86
2023-03-08T03:05:43.809Z,2.87
2023-03-08T03:08:16.485Z,2.90
2023-03-08T03:10:46.019Z,2.90
2023-03-08T03:13:17.543Z,2.86
2023-03-08T03:15:46.053Z,2.84
2023-03-08T03:18:16.653Z,2.82
2023-03-08T03:20:45.145Z,2.79
2023-03-08T03:23:17.313Z,2.78
2023-03-08T03:25:50.722Z,2.79
2023-03-08T03:28:21.336Z,2.84
2023-03-08T03:30:52.058Z,2.76
2023-03-08T03:33:21.783Z,2.83
2023-03-08T03:35:54.684Z,2.82
2023-03-08T03:38:23.867Z,2.79
2023-03-08T03:41:22.882Z,2.78
2023-03-08T03:43:54.752Z,2.78
2023-03-08T03:46:27.669Z,2.82
2023-03-08T03:48:57.263Z,2.89
2023-03-08T03:51:27.152Z,2.90
2023-03-08T03:54:07.286Z,2.89
2023-03-08T03:56:36.175Z,2.88
2023-03-08T03:59:04.788Z,2.87
2023-03-08T04:01:40.740Z,2.85
2023-03-08T04:04:23.257Z,2.82
2023-03-08T04:06:53.583Z,2.82
2023-03-08T04:09:25.474Z,2.86
2023-03-08T04:12:08.364Z,2.85
2023-03-08T04:14:37.464Z,2.94
2023-03-08T04:17:07.584Z,2.92
2023-03-08T04:19:55.421Z,2.89
2023-03-08T04:22:26.362Z,2.83
2023-03-08T04:24:58.733Z,2.80
2023-03-08T04:27:35.925Z,2.76
2023-03-08T04:30:05.225Z,2.78
2023-03-08T04:32:34.722Z,2.83
2023-03-08T04:35:04.242Z,2.78
2023-03-08T04:37:33.538Z,2.72
2023-03-08T04:40:10.740Z,2.72
2023-03-08T04:42:47.506Z,2.71
2023-03-08T04:45:17.827Z,2.69
2023-03-08T04:47:46.619Z,2.62
2023-03-08T04:50:15.925Z,2.77
2023-03-08T04:52:44.614Z,2.86
2023-03-08T04:55:13.604Z,2.87
2023-03-08T04:57:43.226Z,2.85
2023-03-08T05:00:12.784Z,2.84
2023-03-08T05:02:43.212Z,2.82
2023-03-08T05:05:15.259Z,2.81
2023-03-08T05:07:44.416Z,2.79
2023-03-08T05:10:14.434Z,2.81
2023-03-08T05:12:44.148Z,2.87
2023-03-08T05:15:12.834Z,2.90
2023-03-08T05:17:42.955Z,2.89
2023-03-08T05:20:16.607Z,2.89
2023-03-08T05:22:58.298Z,2.87
2023-03-08T05:26:11.976Z,2.91
2023-03-08T05:28:44.683Z,2.91
2023-03-08T05:31:13.613Z,2.96
2023-03-08T05:33:43.894Z,3.06
2023-03-08T05:36:12.786Z,3.05
2023-03-08T05:38:41.684Z,3.02
2023-03-08T05:41:15.041Z,3.05
2023-03-08T05:43:46.429Z,3.09
2023-03-08T05:46:16.931Z,3.09
2023-03-08T05:48:45.651Z,3.12
2023-03-08T05:51:16.966Z,3.15
2023-03-08T05:53:46.096Z,3.11
2023-03-08T05:56:18.105Z,3.20
2023-03-08T05:58:52.589Z,3.27
2023-03-08T06:01:23.732Z,3.29
2023-03-08T06:03:56.305Z,3.29
2023-03-08T06:06:26.629Z,3.30
2023-03-08T06:08:56.542Z,3.32
2023-03-08T06:11:31.071Z,3.31
2023-03-08T06:14:00.577Z,3.33
2023-03-08T06:16:31.293Z,3.39
2023-03-08T06:19:01.979Z,3.43
2023-03-08T06:21:31.253Z,3.50
2023-03-08T06:24:04.658Z,3.61
2023-03-08T06:26:33.441Z,3.68
2023-03-08T06:29:02.435Z,3.72
2023-03-08T06:31:32.559Z,3.75
2023-03-08T06:34:01.864Z,3.78
2023-03-08T06:36:33.623Z,3.80
2023-03-08T06:39:02.517Z,3.83
2023-03-08T06:41:33.149Z,3.87
2023-03-08T06:44:02.250Z,3.92
2023-03-08T06:46:31.039Z,4.04
2023-03-08T06:49:00.136Z,4.12
2023-03-08T06:51:30.054Z,4.10
2023-03-08T06:54:05.435Z,4.23
2023-03-08T06:56:35.379Z,4.24
2023-03-08T06:59:03.804Z,4.26
2023-03-08T07:01:33.146Z,4.30
2023-03-08T07:04:01.638Z,4.33
2023-03-08T07:06:30.167Z,4.35
2023-03-08T07:09:00.801Z,4.37
2023-03-08T07:11:31.843Z,4.40
2023-03-08T07:14:00.219Z,4.49
2023-03-08T07:16:29.931Z,4.55
2023-03-08T07:18:58.313Z,4.56
2023-03-08T07:21:26.900Z,4.60
2023-03-08T07:23:55.278Z,4.63
2023-03-08T07:26:23.764Z,4.66
2023-03-08T07:28:52.271Z,4.69
2023-03-08T07:31:20.834Z,4.70
2023-03-08T07:33:49.825Z,4.70
2023-03-08T07:36:18.618Z,4.69
2023-03-08T07:38:47.610Z,4.70
2023-03-08T07:41:19.473Z,4.72
2023-03-08T07:43:47.958Z,4.84
2023-03-08T07:46:24.652Z,5.02
2023-03-08T07:48:55.409Z,5.14
2023-03-08T07:51:24.530Z,5.23
2023-03-08T07:53:53.256Z,5.32
2023-03-08T07:56:21.640Z,5.39
2023-03-08T07:58:51.456Z,5.43
2023-03-08T08:01:20.348Z,5.43
2023-03-08T08:03:48.958Z,5.39
2023-03-08T08:06:17.518Z,5.39
2023-03-08T08:08:46.101Z,5.36
2023-03-08T08:11:16.667Z,5.35
2023-03-08T08:13:49.514Z,5.35
2023-03-08T08:16:18.553Z,5.35
2023-03-08T08:18:47.196Z,5.36
2023-03-08T08:21:15.983Z,5.38
2023-03-08T08:23:44.769Z,5.46
2023-03-08T08:26:18.118Z,5.58
2023-03-08T08:28:48.035Z,5.68
2023-03-08T08:31:19.594Z,5.80
2023-03-08T08:33:49.663Z,5.92
2023-03-08T08:36:19.604Z,6.01
2023-03-08T08:38:49.797Z,6.07
2023-03-08T08:41:19.434Z,6.13
2023-03-08T08:43:47.991Z,6.21
2023-03-08T08:46:16.680Z,6.26
2023-03-08T08:48:47.214Z,6.30
2023-03-08T08:51:16.112Z,6.32
2023-03-08T08:53:44.686Z,6.31
2023-03-08T08:56:26.737Z,6.31
2023-03-08T08:58:57.656Z,6.30
2023-03-08T09:01:28.252Z,6.28
2023-03-08T09:04:17.382Z,6.26
2023-03-08T09:06:46.314Z,6.21
2023-03-08T09:09:16.229Z,6.18
2023-03-08T09:11:55.233Z,6.19
2023-03-08T09:14:26.027Z,6.26
2023-03-08T09:16:54.679Z,6.36
2023-03-08T09:19:23.384Z,6.42
2023-03-08T09:21:52.157Z,6.45
2023-03-08T09:24:21.152Z,6.46
2023-03-08T09:26:51.067Z,6.43
2023-03-08T09:29:20.067Z,6.35
2023-03-08T09:31:48.526Z,6.30
2023-03-08T09:34:18.360Z,6.27
2023-03-08T09:36:47.764Z,6.22
2023-03-08T09:39:21.267Z,6.17
2023-03-08T09:41:59.373Z,6.11
2023-03-08T09:44:49.769Z,6.06
2023-03-08T09:47:40.523Z,6.09
2023-03-08T09:50:12.845Z,6.08
2023-03-08T09:53:00.478Z,6.07
2023-03-08T09:55:32.332Z,6.09
2023-03-08T09:58:03.991Z,6.12
2023-03-08T10:00:35.172Z,6.16
2023-03-08T10:04:02.033Z,6.19
2023-03-08T10:06:37.171Z,6.28
2023-03-08T10:09:34.687Z,6.30
2023-03-08T10:12:13.565Z,6.34
2023-03-08T10:14:54.500Z,6.33
2023-03-08T10:17:55.323Z,6.31
2023-03-08T10:20:28.515Z,6.25
2023-03-08T10:23:00.080Z,6.24
2023-03-08T10:25:34.152Z,6.20
2023-03-08T10:28:04.312Z,6.15
2023-03-08T10:30:35.569Z,6.12
2023-03-08T10:33:07.829Z,6.09
2023-03-08T10:35:38.569Z,6.09
2023-03-08T10:38:17.336Z,6.14
2023-03-08T10:40:46.487Z,6.15
2023-03-08T10:43:28.273Z,6.12
2023-03-08T10:46:02.199Z,6.07
2023-03-08T10:48:30.775Z,5.99
2023-03-08T10:51:04.905Z,6.01
2023-03-08T10:53:33.261Z,6.08
2023-03-08T10:56:21.412Z,6.13
2023-03-08T10:58:49.991Z,6.18
2023-03-08T11:01:29.850Z,6.19
2023-03-08T11:04:14.237Z,6.25
2023-03-08T11:06:43.085Z,6.41
2023-03-08T11:09:38.403Z,6.58
2023-03-08T11:12:07.201Z,6.72
2023-03-08T11:14:36.058Z,6.80
2023-03-08T11:17:20.221Z,6.96
2023-03-08T11:20:18.712Z,7.30
2023-03-08T11:22:56.106Z,7.87
2023-03-08T11:25:39.952Z,8.27
2023-03-08T11:28:14.122Z,8.44
2023-03-08T11:30:55.152Z,8.45
2023-03-08T11:33:24.576Z,8.67
2023-03-08T11:36:05.137Z,8.89
2023-03-08T11:38:34.101Z,8.90
2023-03-08T11:41:21.426Z,8.77
2023-03-08T11:44:27.390Z,8.58
2023-03-08T11:47:03.959Z,8.24
2023-03-08T11:49:50.777Z,8.01
2023-03-08T11:52:35.332Z,7.79
2023-03-08T11:55:25.861Z,7.62
2023-03-08T11:57:58.105Z,7.51
2023-03-08T12:00:45.017Z,7.43
2023-03-08T12:03:25.405Z,7.44
2023-03-08T12:05:57.257Z,7.51
2023-03-08T12:08:48.322Z,7.54
2023-03-08T12:11:58.514Z,7.52
2023-03-08T12:14:31.518Z,7.37
2023-03-08T12:17:22.781Z,7.35
2023-03-08T12:19:51.619Z,7.39
2023-03-08T12:22:34.563Z,7.37
2023-03-08T12:25:25.419Z,7.38
2023-03-08T12:27:58.785Z,7.40
2023-03-08T12:30:40.740Z,7.34
2023-03-08T12:33:11.987Z,7.49
2023-03-08T12:35:51.212Z,7.54
2023-03-08T12:38:20.138Z,7.55
2023-03-08T12:40:50.103Z,7.51
2023-03-08T12:43:21.495Z,7.48
2023-03-08T12:45:59.455Z,7.46
2023-03-08T12:48:31.083Z,7.53
2023-03-08T12:51:11.830Z,7.56
2023-03-08T12:53:51.680Z,7.65
2023-03-08T12:56:35.157Z,7.89
2023-03-08T12:59:15.466Z,8.24
2023-03-08T13:01:45.310Z,8.55
2023-03-08T13:04:41.484Z,8.95
2023-03-08T13:07:16.090Z,9.40
2023-03-08T13:09:47.398Z,9.76
2023-03-08T13:12:17.108Z,10.14
2023-03-08T13:15:11.606Z,10.50
2023-03-08T13:17:52.788Z,10.86
2023-03-08T13:20:43.921Z,11.07
2023-03-08T13:23:15.416Z,11.26
2023-03-08T13:25:45.696Z,11.43
2023-03-08T13:28:21.988Z,11.54
2023-03-08T13:30:56.954Z,11.60
2023-03-08T13:33:33.966Z,11.71
2023-03-08T13:36:04.787Z,11.82
2023-03-08T13:38:36.021Z,11.95
2023-03-08T13:41:04.539Z,11.96
2023-03-08T13:43:34.460Z,11.95
2023-03-08T13:46:06.631Z,11.93
2023-03-08T13:48:37.469Z,11.97
2023-03-08T13:51:06.355Z,12.12
2023-03-08T13:53:37.090Z,12.19
2023-03-08T13:56:06.395Z,12.26
2023-03-08T13:58:42.097Z,12.35
2023-03-08T14:01:15.533Z,12.43
2023-03-08T14:03:45.350Z,12.45
2023-03-08T14:06:21.836Z,12.42
2023-03-08T14:08:50.533Z,12.43
2023-03-08T14:11:22.289Z,12.48
2023-03-08T14:13:57.860Z,12.52
2023-03-08T14:16:31.886Z,12.49
2023-03-08T14:19:08.875Z,12.49
2023-03-08T14:21:48.825Z,12.54
2023-03-08T14:24:22.974Z,12.58
2023-03-08T14:27:05.414Z,12.35
2023-03-08T14:29:34.825Z,11.88
2023-03-08T14:32:13.043Z,11.53
2023-03-08T14:34:44.610Z,11.47
2023-03-08T14:37:13.167Z,11.37
2023-03-08T14:39:44.403Z,11.07
2023-03-08T14:42:30.924Z,10.80
2023-03-08T14:45:16.815Z,10.38
2023-03-08T14:47:59.144Z,9.94
2023-03-08T14:50:32.183Z,9.58
2023-03-08T14:53:02.643Z,9.29
2023-03-08T14:55:40.239Z,9.04
2023-03-08T14:58:13.442Z,8.84
2023-03-08T15:00:54.514Z,8.67
2023-03-08T15:03:24.034Z,8.51
2023-03-08T15:05:53.172Z,8.34
2023-03-08T15:08:22.416Z,8.18
2023-03-08T15:10:51.929Z,8.00
2023-03-08T15:13:23.112Z,7.87
2023-03-08T15:15:51.717Z,7.76
2023-03-08T15:18:21.166Z,7.64
2023-03-08T15:20:50.109Z,7.52
2023-03-08T15:23:31.360Z,7.40
2023-03-08T15:26:00.044Z,7.30
2023-03-08T15:28:28.821Z,7.21
2023-03-08T15:30:57.488Z,7.12
2023-03-08T15:33:25.998Z,7.02
2023-03-08T15:35:55.233Z,6.93
2023-03-08T15:38:25.006Z,6.88
2023-03-08T15:40:57.892Z,6.86
2023-03-08T15:43:26.685Z,6.78
2023-03-08T15:45:55.065Z,6.68
2023-03-08T15:48:23.752Z,6.60
2023-03-08T15:50:52.338Z,6.52
2023-03-08T15:53:34.577Z,6.45
2023-03-08T15:56:03.842Z,6.40
2023-03-08T15:58:39.538Z,6.40
2023-03-08T16:01:07.991Z,6.38
2023-03-08T16:03:36.566Z,6.34
2023-03-08T16:06:12.062Z,6.23
2023-03-08T16:08:41.334Z,6.25
2023-03-08T16:11:17.175Z,6.18
2023-03-08T16:13:48.914Z,6.14
2023-03-08T16:16:17.566Z,6.14
2023-03-08T16:18:49.055Z,6.12
2023-03-08T16:21:17.667Z,6.07
2023-03-08T16:23:46.156Z,5.97
2023-03-08T16:26:17.372Z,5.88
2023-03-08T16:28:47.307Z,5.85
2023-03-08T16:31:15.883Z,5.78
2023-03-08T16:33:45.010Z,5.75
2023-03-08T16:36:13.532Z,5.69
2023-03-08T16:38:44.124Z,5.63
2023-03-08T16:41:14.300Z,5.57
2023-03-08T16:43:48.828Z,5.48
2023-03-08T16:46:20.529Z,5.42
2023-03-08T16:48:50.041Z,5.37
2023-03-08T16:51:20.276Z,5.35
2023-03-08T16:53:49.256Z,5.31
2023-03-08T16:56:27.539Z,5.22
2023-03-08T16:58:58.457Z,5.15
2023-03-08T17:01:27.245Z,5.10
2023-03-08T17:03:56.607Z,5.06
2023-03-08T17:06:27.163Z,5.03
2023-03-08T17:08:58.070Z,5.03
2023-03-08T17:11:28.093Z,5.00
2023-03-08T17:14:01.795Z,4.97
2023-03-08T17:16:35.911Z,4.94
2023-03-08T17:19:05.214Z,4.92
2023-03-08T17:21:38.561Z,4.84
2023-03-08T17:24:13.240Z,4.78
2023-03-08T17:26:46.441Z,4.75
2023-03-08T17:29:14.927Z,4.77
2023-03-08T17:31:43.711Z,4.82
2023-03-08T17:34:12.192Z,4.85
2023-03-08T17:36:40.719Z,4.86
2023-03-08T17:39:09.364Z,4.86
2023-03-08T17:43:53.337Z,4.90
2023-03-08T17:46:23.930Z,4.91
2023-03-08T17:48:53.980Z,4.90
2023-03-08T17:51:24.468Z,4.87
2023-03-08T17:53:53.221Z,4.87
2023-03-08T17:56:25.467Z,4.92
2023-03-08T17:58:54.872Z,4.91
2023-03-08T18:01:25.854Z,4.88
2023-03-08T18:03:55.653Z,4.86
2023-03-08T18:06:35.171Z,4.80
2023-03-08T18:09:06.218Z,4.77
2023-03-08T18:11:37.962Z,4.70
2023-03-08T18:14:10.869Z,4.62
2023-03-08T18:16:39.552Z,4.51
2023-03-08T18:19:13.459Z,4.47
2023-03-08T18:21:41.905Z,4.49
2023-03-08T18:24:13.197Z,4.53
2023-03-08T18:26:41.615Z,4.54
2023-03-08T18:29:10.255Z,4.52
2023-03-08T18:31:40.609Z,4.49
2023-03-08T18:34:09.584Z,4.40
2023-03-08T18:36:38.165Z,4.35
2023-03-08T18:39:08.306Z,4.33
2023-03-08T18:41:36.755Z,4.30
2023-03-08T18:44:11.813Z,4.26
2023-03-08T18:46:40.254Z,4.24
2023-03-08T18:49:11.486Z,4.22
2023-03-08T18:51:40.746Z,4.26
2023-03-08T18:54:20.798Z,4.33
2023-03-08T18:56:50.192Z,4.35
2023-03-08T18:59:18.658Z,4.34
2023-03-08T19:01:47.397Z,4.34
2023-03-08T19:04:16.755Z,4.32
2023-03-08T19:06:45.026Z,4.30
2023-03-08T19:09:15.962Z,4.27
2023-03-08T19:11:45.955Z,4.22
2023-03-08T19:14:14.933Z,4.17
2023-03-08T19:16:44.369Z,4.12
2023-03-08T19:19:14.678Z,4.07
2023-03-08T19:21:46.900Z,4.01
2023-03-08T19:24:17.112Z,3.94
2023-03-08T19:26:49.168Z,3.90
2023-03-08T19:29:22.370Z,3.91
2023-03-08T19:31:55.976Z,3.90
2023-03-08T19:34:26.656Z,3.87
2023-03-08T19:36:55.592Z,3.84
2023-03-08T19:39:27.244Z,3.80
2023-03-08T19:42:01.409Z,3.75
2023-03-08T19:44:31.482Z,3.69
2023-03-08T19:47:02.218Z,3.63
2023-03-08T19:49:32.860Z,3.57
2023-03-08T19:52:03.254Z,3.50
2023-03-08T19:54:32.478Z,3.41
2023-03-08T19:57:01.367Z,3.52
2023-03-08T19:59:31.902Z,3.50
2023-03-08T20:02:01.305Z,3.48
2023-03-08T20:04:30.205Z,3.44
2023-03-08T20:07:02.055Z,3.40
2023-03-08T20:09:31.667Z,3.38
2023-03-08T20:12:00.762Z,3.34
2023-03-08T20:14:31.216Z,3.31
2023-03-08T20:17:01.662Z,3.30
2023-03-08T20:19:36.965Z,3.34
2023-03-08T20:22:05.430Z,3.39
2023-03-08T20:24:35.261Z,3.45
2023-03-08T20:27:04.868Z,3.47
2023-03-08T20:29:34.786Z,3.47
2023-03-08T20:32:03.578Z,3.50
2023-03-08T20:34:32.894Z,3.51
2023-03-08T20:37:03.005Z,3.52
2023-03-08T20:39:32.616Z,3.50
2023-03-08T20:42:01.185Z,3.49
2023-03-08T20:44:29.875Z,3.46
2023-03-08T20:46:58.250Z,3.45
2023-03-08T20:49:28.476Z,3.48
2023-03-08T20:51:57.268Z,3.49
2023-03-08T20:54:32.608Z,3.47
2023-03-08T20:57:01.299Z,3.44
2023-03-08T20:59:29.986Z,3.42
2023-03-08T21:01:59.394Z,3.39
2023-03-08T21:04:27.891Z,3.34
2023-03-08T21:07:01.403Z,3.27
2023-03-08T21:09:30.366Z,3.19
2023-03-08T21:11:58.949Z,3.17
2023-03-08T21:14:29.280Z,3.19
2023-03-08T21:16:57.860Z,3.19
2023-03-08T21:19:26.242Z,3.18
2023-03-08T21:21:56.868Z,3.18
2023-03-08T21:24:25.635Z,3.20
2023-03-08T21:26:54.453Z,3.19
2023-03-08T21:29:25.496Z,3.14
2023-03-08T21:31:54.294Z,3.06
2023-03-08T21:34:23.481Z,3.00
2023-03-08T21:36:52.484Z,3.06
2023-03-08T21:39:20.961Z,3.17
2023-03-08T21:41:50.055Z,3.24
2023-03-08T21:44:19.583Z,3.27
2023-03-08T21:46:49.873Z,3.29
2023-03-08T21:49:23.748Z,3.24
2023-03-08T21:51:57.308Z,3.19
2023-03-08T21:54:28.034Z,3.20
2023-03-08T21:56:57.031Z,3.21
2023-03-08T21:59:27.361Z,3.21
2023-03-08T22:01:58.662Z,3.24
2023-03-08T22:04:27.596Z,3.32
2023-03-08T22:06:56.304Z,3.35
2023-03-08T22:09:30.092Z,3.37
2023-03-08T22:12:00.110Z,3.40
2023-03-08T22:14:28.899Z,3.42
2023-03-08T22:17:01.068Z,3.42
2023-03-08T22:19:29.662Z,3.43
2023-03-08T22:21:59.068Z,3.45
2023-03-08T22:24:27.645Z,3.49
2023-03-08T22:27:03.615Z,3.57
2023-03-08T22:29:32.289Z,3.60
2023-03-08T22:32:01.299Z,3.64
2023-03-08T22:34:29.775Z,3.66
2023-03-08T22:36:58.152Z,3.67
2023-03-08T22:39:28.164Z,3.67
2023-03-08T22:41:57.783Z,3.66
2023-03-08T22:44:26.161Z,3.65
2023-03-08T22:46:58.330Z,3.64
2023-03-08T22:49:26.812Z,3.64
2023-03-08T22:51:55.209Z,3.68
2023-03-08T22:54:23.887Z,3.68
2023-03-08T22:56:52.365Z,3.68
2023-03-08T22:59:20.750Z,3.68
2023-03-08T23:01:49.409Z,3.71
2023-03-08T23:04:18.541Z,3.72
2023-03-08T23:06:48.076Z,3.73
2023-03-08T23:09:17.441Z,3.71
2023-03-08T23:11:45.821Z,3.76
2023-03-08T23:14:16.866Z,3.84
2023-03-08T23:16:48.177Z,3.85
2023-03-08T23:19:18.440Z,3.83
2023-03-08T23:22:06.477Z,3.82
2023-03-08T23:24:36.090Z,3.71
2023-03-08T23:27:04.573Z,3.67
2023-03-08T23:29:34.384Z,3.69
2023-03-08T23:32:03.317Z,3.74
2023-03-08T23:34:32.483Z,3.81
2023-03-08T23:37:05.874Z,3.84
2023-03-08T23:39:37.530Z,3.85
2023-03-08T23:42:06.523Z,3.87
2023-03-08T23:44:37.988Z,3.88
2023-03-08T23:47:06.972Z,3.84
2023-03-08T23:49:37.910Z,3.84
2023-03-08T23:52:06.594Z,3.89
2023-03-08T23:54:36.107Z,3.90
2023-03-08T23:57:04.487Z,3.89
2023-03-08T23:59:32.879Z,3.87
